createdAt,value
2018-07-10T00:02:18.386Z,61.20
2018-07-10T00:07:00.381Z,61.90
2018-07-10T00:09:43.770Z,61.90
2018-07-10T00:12:12.302Z,61.50
2018-07-10T00:14:40.487Z,62.20
2018-07-10T00:17:08.765Z,61.80
2018-07-10T00:19:37.002Z,60.90
2018-07-10T00:22:05.318Z,60.70
2018-07-10T00:24:33.585Z,60.60
2018-07-10T00:27:01.873Z,60.70
2018-07-10T00:29:30.591Z,60.90
2018-07-10T00:31:58.860Z,60.90
2018-07-10T00:34:27.106Z,60.70
2018-07-10T00:36:55.351Z,61.20
2018-07-10T00:39:23.604Z,61.80
2018-07-10T00:41:51.853Z,61.80
2018-07-10T00:44:20.178Z,62.90
2018-07-10T00:46:48.521Z,63.10
2018-07-10T00:49:16.784Z,63.00
2018-07-10T00:51:45.036Z,62.40
2018-07-10T00:54:13.322Z,62.40
2018-07-10T00:56:41.565Z,62.10
2018-07-10T00:59:09.803Z,61.80
2018-07-10T01:01:38.063Z,61.10
2018-07-10T01:04:06.307Z,60.90
2018-07-10T01:06:34.560Z,60.70
2018-07-10T01:09:02.844Z,60.70
2018-07-10T01:11:31.082Z,60.20
2018-07-10T01:13:59.334Z,60.20
2018-07-10T01:16:37.045Z,60.30
2018-07-10T01:19:11.578Z,60.70
2018-07-10T01:21:41.789Z,61.00
2018-07-10T01:24:10.256Z,60.80
2018-07-10T01:26:40.365Z,61.00
2018-07-10T01:29:21.299Z,60.70
2018-07-10T01:31:51.896Z,60.90
2018-07-10T01:34:20.372Z,60.90
2018-07-10T01:36:49.060Z,61.60
2018-07-10T01:39:17.644Z,61.10
2018-07-10T01:41:45.880Z,60.70
2018-07-10T01:44:14.211Z,59.80
2018-07-10T01:46:42.457Z,59.70
2018-07-10T01:49:10.690Z,59.60
2018-07-10T01:51:38.915Z,59.50
2018-07-10T01:54:07.174Z,59.20
2018-07-10T01:56:35.436Z,57.90
2018-07-10T01:59:03.690Z,57.20
2018-07-10T02:01:32.127Z,57.60
2018-07-10T02:04:01.642Z,57.70
2018-07-10T02:06:29.983Z,56.90
2018-07-10T02:08:59.029Z,56.90
2018-07-10T02:11:27.297Z,56.70
2018-07-10T02:13:55.585Z,57.10
2018-07-10T02:16:23.904Z,56.90
2018-07-10T02:21:26.859Z,56.70
2018-07-10T02:23:55.120Z,56.10
2018-07-10T02:26:26.641Z,56.30
2018-07-10T02:28:55.531Z,57.10
2018-07-10T02:31:23.848Z,57.30
2018-07-10T02:33:52.938Z,57.80
2018-07-10T02:36:22.212Z,58.10
2018-07-10T02:38:58.609Z,58.30
2018-07-10T02:41:26.888Z,58.70
2018-07-10T02:44:00.975Z,59.10
2018-07-10T02:46:31.080Z,59.30
2018-07-10T02:49:07.679Z,59.40
2018-07-10T02:51:36.403Z,59.70
2018-07-10T02:54:04.647Z,59.60
2018-07-10T02:56:32.908Z,59.50
2018-07-10T02:59:01.879Z,59.60
2018-07-10T03:01:30.104Z,59.60
2018-07-10T03:03:59.444Z,59.40
2018-07-10T03:06:27.664Z,59.30
2018-07-10T03:08:56.416Z,59.20
2018-07-10T03:11:24.817Z,59.20
2018-07-10T03:13:53.079Z,59.20
2018-07-10T03:16:21.278Z,59.20
2018-07-10T03:18:50.328Z,59.20
2018-07-10T03:21:18.550Z,59.00
2018-07-10T03:23:46.801Z,59.00
2018-07-10T03:26:15.102Z,59.00
2018-07-10T03:28:43.356Z,59.00
2018-07-10T03:31:11.918Z,58.90
2018-07-10T03:33:40.515Z,58.80
2018-07-10T03:36:08.738Z,58.40
2018-07-10T03:38:37.006Z,58.60
2018-07-10T03:41:05.629Z,58.40
2018-07-10T03:43:34.118Z,57.70
2018-07-10T03:46:02.329Z,57.00
2018-07-10T03:48:30.579Z,56.70
2018-07-10T03:50:59.188Z,56.40
2018-07-10T03:53:27.810Z,56.40
2018-07-10T03:55:56.310Z,56.90
2018-07-10T03:58:24.695Z,57.00
2018-07-10T04:00:53.227Z,56.40
2018-07-10T04:03:27.287Z,56.80
2018-07-10T04:05:55.925Z,56.70
2018-07-10T04:08:24.291Z,57.30
2018-07-10T04:10:52.573Z,56.20
2018-07-10T04:13:21.406Z,56.30
2018-07-10T04:15:54.230Z,56.30
2018-07-10T04:18:25.708Z,56.00
2018-07-10T04:21:35.982Z,56.30
2018-07-10T04:27:29.431Z,55.70
2018-07-10T04:30:05.722Z,55.90
2018-07-10T04:32:35.480Z,56.00
2018-07-10T04:35:03.722Z,56.10
2018-07-10T04:37:32.450Z,56.30
2018-07-10T04:40:01.456Z,56.00
2018-07-10T04:42:33.591Z,55.80
2018-07-10T04:45:11.605Z,55.50
2018-07-10T04:47:47.580Z,55.50
2018-07-10T04:50:19.666Z,55.30
2018-07-10T04:52:52.229Z,55.20
2018-07-10T04:55:20.494Z,55.10
2018-07-10T04:57:57.060Z,55.30
2018-07-10T05:00:25.854Z,55.60
2018-07-10T05:02:55.661Z,55.60
2018-07-10T05:05:24.622Z,55.50
2018-07-10T05:07:53.359Z,55.10
2018-07-10T05:10:21.582Z,55.60
2018-07-10T05:12:49.802Z,54.80
2018-07-10T05:15:18.222Z,54.50
2018-07-10T05:17:50.897Z,55.00
2018-07-10T05:20:20.272Z,55.20
2018-07-10T05:22:49.100Z,55.10
2018-07-10T05:25:17.329Z,55.40
2018-07-10T05:27:45.584Z,55.70
2018-07-10T05:30:14.868Z,55.30
2018-07-10T05:32:43.116Z,55.20
2018-07-10T05:35:11.426Z,55.10
2018-07-10T05:37:39.653Z,54.80
2018-07-10T05:40:10.722Z,55.40
2018-07-10T05:42:48.037Z,55.60
2018-07-10T05:45:22.807Z,54.70
2018-07-10T05:47:58.302Z,55.50
2018-07-10T05:50:29.438Z,56.10
2018-07-10T05:52:57.693Z,56.10
2018-07-10T05:57:57.883Z,55.80
2018-07-10T06:00:26.448Z,56.00
2018-07-10T06:02:55.236Z,55.80
2018-07-10T06:05:25.027Z,56.20
2018-07-10T06:07:54.177Z,56.10
2018-07-10T06:10:23.724Z,56.10
2018-07-10T06:12:52.083Z,55.90
2018-07-10T06:15:20.312Z,55.90
2018-07-10T06:17:49.279Z,55.80
2018-07-10T06:20:19.005Z,55.30
2018-07-10T06:22:47.232Z,55.40
2018-07-10T06:27:51.880Z,56.00
2018-07-10T06:30:20.548Z,55.60
2018-07-10T06:33:32.803Z,55.90
2018-07-10T06:36:18.583Z,56.00
2018-07-10T06:38:48.442Z,55.60
2018-07-10T06:41:17.481Z,55.50
2018-07-10T06:43:48.463Z,55.00
2018-07-10T06:46:17.508Z,54.10
2018-07-10T06:48:48.766Z,54.80
2018-07-10T06:51:18.769Z,55.10
2018-07-10T06:53:48.286Z,54.80
2018-07-10T06:56:26.000Z,54.70
2018-07-10T06:58:55.259Z,55.00
2018-07-10T07:01:24.351Z,55.00
2018-07-10T07:03:56.385Z,54.50
2018-07-10T07:06:25.717Z,54.10
2018-07-10T07:08:54.315Z,53.60
2018-07-10T07:11:22.556Z,53.30
2018-07-10T07:13:50.796Z,53.70
2018-07-10T07:16:19.043Z,54.10
2018-07-10T07:18:47.266Z,54.10
2018-07-10T07:21:15.493Z,54.40
2018-07-10T07:23:43.775Z,55.00
2018-07-10T07:26:12.009Z,55.20
2018-07-10T07:28:40.437Z,55.40
2018-07-10T07:31:08.702Z,55.50
2018-07-10T07:33:36.961Z,55.90
2018-07-10T07:36:05.261Z,56.20
2018-07-10T07:38:33.501Z,56.50
2018-07-10T07:41:01.888Z,56.00
2018-07-10T07:43:30.117Z,56.20
2018-07-10T07:48:26.348Z,56.80
2018-07-10T07:50:54.570Z,56.80
2018-07-10T07:53:22.831Z,57.20
2018-07-10T07:55:51.263Z,56.80
2018-07-10T07:58:19.523Z,56.90
2018-07-10T08:00:47.817Z,56.60
2018-07-10T08:03:16.048Z,56.00
2018-07-10T08:05:44.336Z,55.60
2018-07-10T08:08:12.637Z,55.80
2018-07-10T08:10:41.191Z,56.00
2018-07-10T08:13:09.453Z,56.40
2018-07-10T08:15:37.658Z,56.30
2018-07-10T08:18:05.997Z,56.40
2018-07-10T08:20:34.252Z,56.90
2018-07-10T08:23:02.932Z,56.80
2018-07-10T08:25:31.186Z,56.50
2018-07-10T08:27:59.458Z,56.80
2018-07-10T08:30:27.941Z,57.30
2018-07-10T08:32:56.495Z,57.50
2018-07-10T08:35:24.751Z,57.70
2018-07-10T08:37:53.290Z,58.40
2018-07-10T08:40:21.510Z,58.60
2018-07-10T08:42:49.834Z,59.20
2018-07-10T08:45:19.101Z,59.30
2018-07-10T08:47:48.397Z,59.70
2018-07-10T08:50:17.973Z,61.60
2018-07-10T08:52:48.090Z,61.00
2018-07-10T08:55:18.883Z,61.10
2018-07-10T08:57:48.256Z,60.90
2018-07-10T09:00:17.038Z,60.20
2018-07-10T09:02:45.285Z,59.60
2018-07-10T09:05:16.571Z,60.00
2018-07-10T09:07:44.825Z,59.50
2018-07-10T09:10:13.055Z,59.20
2018-07-10T09:12:41.310Z,59.70
2018-07-10T09:15:09.561Z,60.40
2018-07-10T09:17:38.103Z,61.60
2018-07-10T09:20:06.335Z,62.20
2018-07-10T09:22:34.583Z,63.10
2018-07-10T09:25:03.983Z,63.00
2018-07-10T09:27:32.233Z,63.30
2018-07-10T09:30:00.488Z,63.10
2018-07-10T09:32:34.059Z,62.40
2018-07-10T09:35:02.304Z,61.90
2018-07-10T09:37:36.068Z,61.80
2018-07-10T09:40:19.461Z,61.80
2018-07-10T09:42:53.668Z,62.30
2018-07-10T09:45:22.744Z,62.40
2018-07-10T09:47:50.989Z,64.50
2018-07-10T09:50:19.209Z,64.90
2018-07-10T09:52:47.471Z,64.90
2018-07-10T09:55:15.695Z,65.90
2018-07-10T09:57:44.040Z,65.10
2018-07-10T10:00:12.282Z,66.10
2018-07-10T10:02:40.506Z,65.90
2018-07-10T10:05:08.737Z,66.30
2018-07-10T10:07:37.043Z,66.60
2018-07-10T10:10:05.677Z,67.20
2018-07-10T10:12:34.189Z,67.30
2018-07-10T10:15:02.455Z,66.70
2018-07-10T10:17:31.117Z,67.40
2018-07-10T10:19:59.798Z,67.30
2018-07-10T10:22:29.942Z,68.30
2018-07-10T10:24:58.817Z,68.90
2018-07-10T10:27:29.134Z,68.40
2018-07-10T10:29:57.864Z,68.60
2018-07-10T10:33:00.176Z,69.20
2018-07-10T10:35:29.530Z,68.40
2018-07-10T10:37:59.406Z,68.60
2018-07-10T10:42:57.401Z,68.70
2018-07-10T10:45:26.301Z,68.00
2018-07-10T10:47:56.007Z,68.50
2018-07-10T10:50:26.499Z,67.80
2018-07-10T10:52:56.157Z,67.10
2018-07-10T10:55:24.439Z,67.30
2018-07-10T10:57:53.337Z,66.80
2018-07-10T11:00:21.721Z,67.50
2018-07-10T11:02:53.245Z,67.70
2018-07-10T11:05:21.981Z,67.30
2018-07-10T11:07:50.372Z,66.80
2018-07-10T11:10:19.210Z,65.30
2018-07-10T11:12:51.170Z,65.70
2018-07-10T11:15:21.079Z,66.00
2018-07-10T11:18:03.072Z,66.10
2018-07-10T11:20:40.203Z,66.10
2018-07-10T11:23:09.500Z,66.70
2018-07-10T11:25:39.919Z,67.20
2018-07-10T11:28:10.332Z,67.50
2018-07-10T11:30:38.752Z,67.30
2018-07-10T11:33:08.595Z,67.60
2018-07-10T11:38:10.537Z,68.10
2018-07-10T11:40:42.885Z,68.80
2018-07-10T11:43:11.760Z,68.70
2018-07-10T11:45:40.127Z,69.40
2018-07-10T11:48:09.399Z,69.90
2018-07-10T11:50:37.638Z,70.70
2018-07-10T11:53:05.901Z,70.80
2018-07-10T11:55:35.374Z,70.40
2018-07-10T11:58:05.079Z,70.50
2018-07-10T12:00:33.629Z,70.70
2018-07-10T12:03:04.530Z,70.90
2018-07-10T12:05:35.090Z,71.10
2018-07-10T12:08:04.096Z,70.40
2018-07-10T12:10:33.794Z,72.20
2018-07-10T12:13:02.125Z,73.20
2018-07-10T12:15:30.403Z,73.90
2018-07-10T12:17:59.631Z,73.30
2018-07-10T12:20:36.574Z,74.10
2018-07-10T12:23:06.054Z,74.30
2018-07-10T12:25:36.996Z,74.10
2018-07-10T12:28:06.756Z,74.30
2018-07-10T12:30:35.026Z,74.80
2018-07-10T12:33:04.221Z,75.10
2018-07-10T12:35:32.504Z,74.80
2018-07-10T12:38:00.837Z,74.80
2018-07-10T12:40:29.301Z,74.50
2018-07-10T12:42:57.565Z,74.90
2018-07-10T12:45:25.848Z,75.50
2018-07-10T12:50:22.443Z,75.60
2018-07-10T12:52:50.688Z,75.60
2018-07-10T12:55:20.028Z,75.60
2018-07-10T12:57:48.913Z,75.70
2018-07-10T13:00:17.204Z,75.60
2018-07-10T13:02:49.037Z,75.30
2018-07-10T13:05:18.317Z,75.10
2018-07-10T13:07:46.805Z,74.30
2018-07-10T13:10:15.107Z,73.10
2018-07-10T13:12:43.786Z,74.20
2018-07-10T13:15:12.352Z,74.40
2018-07-10T13:17:42.284Z,74.10
2018-07-10T13:20:10.578Z,73.20
2018-07-10T13:22:38.859Z,73.50
2018-07-10T13:25:07.241Z,73.60
2018-07-10T13:27:35.625Z,73.60
2018-07-10T13:30:03.982Z,73.30
2018-07-10T13:32:32.253Z,73.20
2018-07-10T13:35:01.511Z,73.20
2018-07-10T13:37:33.090Z,72.10
2018-07-10T13:40:05.516Z,72.90
2018-07-10T13:42:42.374Z,73.20
2018-07-10T13:45:10.648Z,72.80
2018-07-10T13:47:40.907Z,72.80
2018-07-10T13:52:42.252Z,72.80
2018-07-10T13:55:11.546Z,72.90
2018-07-10T13:57:43.486Z,72.30
2018-07-10T14:00:12.054Z,72.30
2018-07-10T14:02:41.039Z,71.80
2018-07-10T14:05:09.680Z,71.90
2018-07-10T14:07:37.999Z,72.60
2018-07-10T14:10:06.242Z,72.00
2018-07-10T14:12:34.521Z,71.30
2018-07-10T14:15:03.070Z,70.70
2018-07-10T14:17:31.310Z,71.00
2018-07-10T14:19:59.629Z,70.50
2018-07-10T14:22:28.644Z,69.10
2018-07-10T14:24:56.888Z,69.60
2018-07-10T14:27:25.143Z,70.00
2018-07-10T14:29:53.701Z,70.40
2018-07-10T14:32:21.969Z,70.90
2018-07-10T14:37:20.013Z,70.50
2018-07-10T14:39:48.658Z,71.00
2018-07-10T14:42:17.145Z,69.40
2018-07-10T14:44:45.643Z,69.20
2018-07-10T14:47:14.513Z,69.70
2018-07-10T14:49:42.835Z,68.60
2018-07-10T14:52:11.389Z,68.00
2018-07-10T14:54:48.541Z,68.00
2018-07-10T14:57:29.492Z,67.40
2018-07-10T14:59:57.868Z,66.00
2018-07-10T15:02:26.138Z,66.50
2018-07-10T15:04:54.482Z,66.70
2018-07-10T15:07:22.729Z,65.80
2018-07-10T15:09:51.013Z,65.30
2018-07-10T15:12:19.241Z,64.50
2018-07-10T15:14:47.557Z,64.50
2018-07-10T15:17:21.047Z,65.40
2018-07-10T15:19:49.314Z,64.50
2018-07-10T15:22:17.849Z,63.10
2018-07-10T15:24:46.088Z,62.90
2018-07-10T15:27:14.358Z,64.20
2018-07-10T15:29:42.566Z,62.60
2018-07-10T15:32:10.841Z,62.70
2018-07-10T15:34:39.236Z,63.60
2018-07-10T15:37:07.531Z,63.70
2018-07-10T15:39:36.108Z,64.60
2018-07-10T15:42:04.917Z,63.50
2018-07-10T15:44:33.445Z,62.70
2018-07-10T15:47:01.704Z,63.10
2018-07-10T15:49:30.140Z,61.70
2018-07-10T15:51:58.365Z,61.90
2018-07-10T15:54:26.608Z,61.90
2018-07-10T15:56:54.884Z,62.40
2018-07-10T15:59:23.154Z,62.30
2018-07-10T16:01:51.406Z,60.60
2018-07-10T16:04:19.665Z,60.50
2018-07-10T16:06:48.139Z,61.30
2018-07-10T16:09:18.905Z,61.20
2018-07-10T16:11:49.587Z,57.60
2018-07-10T16:14:17.837Z,59.20
2018-07-10T16:16:47.153Z,60.20
2018-07-10T16:19:18.269Z,59.90
2018-07-10T16:21:51.069Z,60.30
2018-07-10T16:24:20.403Z,58.80
2018-07-10T16:26:48.621Z,59.30
2018-07-10T16:29:19.138Z,59.20
2018-07-10T16:31:48.700Z,59.30
2018-07-10T16:34:16.916Z,59.20
2018-07-10T16:36:45.154Z,58.80
2018-07-10T16:39:13.370Z,58.60
2018-07-10T16:41:47.255Z,58.40
2018-07-10T16:44:15.518Z,58.80
2018-07-10T16:46:47.795Z,57.70
2018-07-10T16:49:24.628Z,57.60
2018-07-10T16:52:00.112Z,56.10
2018-07-10T16:54:28.358Z,56.10
2018-07-10T16:56:56.612Z,56.10
2018-07-10T16:59:25.751Z,56.10
2018-07-10T17:01:54.137Z,56.50
2018-07-10T17:04:22.497Z,56.00
2018-07-10T17:06:50.745Z,55.30
2018-07-10T17:09:19.168Z,55.90
2018-07-10T17:11:47.427Z,54.90
2018-07-10T17:14:15.691Z,56.30
2018-07-10T17:16:43.979Z,54.60
2018-07-10T17:19:12.272Z,54.70
2018-07-10T17:21:40.524Z,54.70
2018-07-10T17:24:08.861Z,56.10
2018-07-10T17:26:37.671Z,55.50
2018-07-10T17:29:11.329Z,55.80
2018-07-10T17:31:39.917Z,55.60
2018-07-10T17:34:08.376Z,53.10
2018-07-10T17:36:36.638Z,53.50
2018-07-10T17:39:05.737Z,54.10
2018-07-10T17:41:35.870Z,53.90
2018-07-10T17:44:06.798Z,54.20
2018-07-10T17:46:35.048Z,52.60
2018-07-10T17:49:03.911Z,52.10
2018-07-10T17:51:32.238Z,51.30
2018-07-10T17:54:00.560Z,50.90
2018-07-10T17:56:34.745Z,50.90
2018-07-10T17:59:05.903Z,50.30
2018-07-10T18:01:35.111Z,50.80
2018-07-10T18:04:03.406Z,50.90
2018-07-10T18:06:33.504Z,52.00
2018-07-10T18:09:02.068Z,51.60
2018-07-10T18:11:30.321Z,51.40
2018-07-10T18:13:58.598Z,51.50
2018-07-10T18:16:31.171Z,51.80
2018-07-10T18:18:59.336Z,52.70
2018-07-10T18:23:55.746Z,53.40
2018-07-10T18:26:24.114Z,53.20
2018-07-10T18:28:52.344Z,53.30
2018-07-10T18:31:20.606Z,54.20
2018-07-10T18:33:48.909Z,54.00
2018-07-10T18:36:17.503Z,53.40
2018-07-10T18:38:48.245Z,53.50
2018-07-10T18:41:16.491Z,53.80
2018-07-10T18:43:46.188Z,54.30
2018-07-10T18:46:15.148Z,54.40
2018-07-10T18:48:44.606Z,54.10
2018-07-10T18:51:12.923Z,54.10
2018-07-10T18:53:42.506Z,54.40
2018-07-10T18:56:11.764Z,54.60
2018-07-10T18:59:14.433Z,54.90
2018-07-10T19:01:56.140Z,55.20
2018-07-10T19:06:54.388Z,55.60
2018-07-10T19:09:31.089Z,55.40
2018-07-10T19:11:59.367Z,55.60
2018-07-10T19:14:27.612Z,55.60
2018-07-10T19:16:55.986Z,55.90
2018-07-10T19:19:24.332Z,55.70
2018-07-10T19:21:56.656Z,55.70
2018-07-10T19:24:26.598Z,55.50
2018-07-10T19:26:57.936Z,55.40
2018-07-10T19:29:36.882Z,55.20
2018-07-10T19:32:05.697Z,55.30
2018-07-10T19:34:33.916Z,55.50
2018-07-10T19:37:02.172Z,55.60
2018-07-10T19:39:30.414Z,55.70
2018-07-10T19:41:58.652Z,55.80
2018-07-10T19:44:27.912Z,55.70
2018-07-10T19:46:56.168Z,55.80
2018-07-10T19:49:24.725Z,55.70
2018-07-10T19:51:53.330Z,55.70
2018-07-10T19:54:21.890Z,55.50
2018-07-10T19:56:50.137Z,54.80
2018-07-10T19:59:19.706Z,54.20
2018-07-10T20:01:51.900Z,54.60
2018-07-10T20:04:47.000Z,54.30
2018-07-10T20:07:24.953Z,54.30
2018-07-10T20:09:55.596Z,54.50
2018-07-10T20:12:28.972Z,54.90
2018-07-10T20:16:07.317Z,55.30
2018-07-10T20:21:00.154Z,55.40
2018-07-10T20:26:15.968Z,56.10
2018-07-10T20:31:54.712Z,56.30
2018-07-10T20:35:32.580Z,56.50
2018-07-10T20:38:07.951Z,56.60
2018-07-10T20:40:43.502Z,57.20
2018-07-10T20:43:23.317Z,57.40
2018-07-10T20:45:56.731Z,57.80
2018-07-10T20:49:03.657Z,57.90
2018-07-10T20:51:39.263Z,58.00
2018-07-10T20:54:25.211Z,58.00
2018-07-10T20:57:07.714Z,58.10
2018-07-10T20:59:45.037Z,58.10
2018-07-10T21:03:29.452Z,58.50
2018-07-10T21:06:09.638Z,58.50
2018-07-10T21:08:53.212Z,58.90
2018-07-10T21:11:25.082Z,58.70
2018-07-10T21:14:07.044Z,58.90
2018-07-10T21:17:06.340Z,59.20
2018-07-10T21:19:51.410Z,59.30
2018-07-10T21:22:39.516Z,59.30
2018-07-10T21:25:17.814Z,59.20
2018-07-10T21:28:01.585Z,59.30
2018-07-10T21:30:37.555Z,59.80
2018-07-10T21:34:13.921Z,59.60
2018-07-10T21:36:50.650Z,59.90
2018-07-10T21:41:48.151Z,60.00
2018-07-10T21:46:27.648Z,60.30
2018-07-10T21:49:10.460Z,60.90
2018-07-10T21:51:39.486Z,61.10
2018-07-10T21:54:08.636Z,60.90
2018-07-10T21:56:37.119Z,61.20
2018-07-10T21:59:06.020Z,61.20
2018-07-10T22:01:47.367Z,61.80
2018-07-10T22:04:21.486Z,61.50
2018-07-10T22:06:52.188Z,62.00
2018-07-10T22:09:21.215Z,62.50
2018-07-10T22:11:50.026Z,62.70
2018-07-10T22:14:18.559Z,62.60
2018-07-10T22:16:46.970Z,63.10
2018-07-10T22:19:20.823Z,63.20
2018-07-10T22:21:49.078Z,64.00
2018-07-10T22:24:18.027Z,63.60
2018-07-10T22:26:46.884Z,63.60
2018-07-10T22:29:15.182Z,63.40
2018-07-10T22:31:49.075Z,63.70
2018-07-10T22:34:18.386Z,63.90
2018-07-10T22:36:50.301Z,63.70
2018-07-10T22:39:21.493Z,64.10
2018-07-10T22:41:54.563Z,64.60
2018-07-10T22:44:29.236Z,64.10
2018-07-10T22:47:01.960Z,63.80
2018-07-10T22:49:33.630Z,63.90
2018-07-10T22:52:02.817Z,64.50
2018-07-10T22:54:37.582Z,64.60
2018-07-10T22:57:09.190Z,64.90
2018-07-10T22:59:37.422Z,65.40
2018-07-10T23:02:06.116Z,64.70
2018-07-10T23:04:34.355Z,65.30
2018-07-10T23:07:02.569Z,65.40
2018-07-10T23:09:30.825Z,65.30
2018-07-10T23:11:59.057Z,65.90
2018-07-10T23:14:27.281Z,65.80
2018-07-10T23:16:56.349Z,66.80
2018-07-10T23:19:24.631Z,66.80
2018-07-10T23:21:52.947Z,66.60
2018-07-10T23:24:21.184Z,66.90
2018-07-10T23:26:49.444Z,67.40
2018-07-10T23:29:21.111Z,66.80
2018-07-10T23:31:49.572Z,67.20
2018-07-10T23:34:19.912Z,67.70
2018-07-10T23:36:52.053Z,68.30
2018-07-10T23:39:24.206Z,67.20
2018-07-10T23:41:55.155Z,67.20
2018-07-10T23:44:29.562Z,67.80
2018-07-10T23:47:02.341Z,68.10
2018-07-10T23:52:10.017Z,68.40
2018-07-10T23:54:38.249Z,68.40
2018-07-10T23:57:06.479Z,69.20
2018-07-10T23:59:34.976Z,69.80
